sensor_id;sensor_type;location;lat;lon;timestamp;temperature;humidity
53274;DHT22;39163;52.696;6.758;2022-09-14T00:01:24;13.10;99.90
53274;DHT22;39163;52.696;6.758;2022-09-14T00:03:54;13.10;99.90
53274;DHT22;39163;52.696;6.758;2022-09-14T00:06:27;13.10;99.90
53274;DHT22;39163;52.696;6.758;2022-09-14T00:08:58;13.00;99.90
53274;DHT22;39163;52.696;6.758;2022-09-14T00:11:29;13.10;99.90
53274;DHT22;39163;52.696;6.758;2022-09-14T00:13:56;13.00;99.90
53274;DHT22;39163;52.696;6.758;2022-09-14T00:16:27;13.00;99.90
53274;DHT22;39163;52.696;6.758;2022-09-14T00:18:59;13.00;99.90
53274;DHT22;39163;52.696;6.758;2022-09-14T00:21:41;13.10;99.90
53274;DHT22;39163;52.696;6.758;2022-09-14T00:24:10;13.20;99.90
53274;DHT22;39163;52.696;6.758;2022-09-14T00:26:39;13.00;99.90
53274;DHT22;39163;52.696;6.758;2022-09-14T00:29:17;13.10;99.90
53274;DHT22;39163;52.696;6.758;2022-09-14T00:31:53;13.10;99.90
53274;DHT22;39163;52.696;6.758;2022-09-14T00:34:24;13.10;99.90
53274;DHT22;39163;52.696;6.758;2022-09-14T00:36:53;13.10;99.90
53274;DHT22;39163;52.696;6.758;2022-09-14T00:39:25;13.20;99.90
53274;DHT22;39163;52.696;6.758;2022-09-14T00:41:55;13.20;99.90
53274;DHT22;39163;52.696;6.758;2022-09-14T00:47:10;13.20;99.90
53274;DHT22;39163;52.696;6.758;2022-09-14T00:49:38;13.20;99.90
53274;DHT22;39163;52.696;6.758;2022-09-14T00:52:08;13.20;99.90
53274;DHT22;39163;52.696;6.758;2022-09-14T00:54:40;13.20;99.90
53274;DHT22;39163;52.696;6.758;2022-09-14T00:57:09;13.20;99.90
53274;DHT22;39163;52.696;6.758;2022-09-14T00:59:39;13.20;99.90
53274;DHT22;39163;52.696;6.758;2022-09-14T01:02:13;13.20;99.90
53274;DHT22;39163;52.696;6.758;2022-09-14T01:04:49;13.10;99.90
53274;DHT22;39163;52.696;6.758;2022-09-14T01:10:27;13.10;99.90
53274;DHT22;39163;52.696;6.758;2022-09-14T01:21:08;12.90;99.90
53274;DHT22;39163;52.696;6.758;2022-09-14T01:58:38;12.50;99.90
53274;DHT22;39163;52.696;6.758;2022-09-14T02:11:29;12.40;99.90
53274;DHT22;39163;52.696;6.758;2022-09-14T02:14:23;12.40;99.90
53274;DHT22;39163;52.696;6.758;2022-09-14T02:17:03;12.40;99.90
53274;DHT22;39163;52.696;6.758;2022-09-14T02:23:30;12.30;99.90
53274;DHT22;39163;52.696;6.758;2022-09-14T02:26:44;12.20;99.90
53274;DHT22;39163;52.696;6.758;2022-09-14T02:35:02;12.20;99.90
53274;DHT22;39163;52.696;6.758;2022-09-14T05:15:08;12.70;99.90
53274;DHT22;39163;52.696;6.758;2022-09-14T05:17:34;12.70;99.90
53274;DHT22;39163;52.696;6.758;2022-09-14T05:20:00;12.70;99.90
53274;DHT22;39163;52.696;6.758;2022-09-14T05:22:26;12.70;99.90
53274;DHT22;39163;52.696;6.758;2022-09-14T05:24:52;12.70;99.90
53274;DHT22;39163;52.696;6.758;2022-09-14T05:27:17;12.70;99.90
53274;DHT22;39163;52.696;6.758;2022-09-14T05:29:43;12.80;99.90
53274;DHT22;39163;52.696;6.758;2022-09-14T05:32:09;12.80;99.90
53274;DHT22;39163;52.696;6.758;2022-09-14T05:34:34;12.80;99.90
53274;DHT22;39163;52.696;6.758;2022-09-14T05:37:01;12.80;99.90
53274;DHT22;39163;52.696;6.758;2022-09-14T05:39:26;12.80;99.90
53274;DHT22;39163;52.696;6.758;2022-09-14T05:41:52;12.80;99.90
53274;DHT22;39163;52.696;6.758;2022-09-14T05:44:18;12.90;99.90
53274;DHT22;39163;52.696;6.758;2022-09-14T05:46:44;12.90;99.90
53274;DHT22;39163;52.696;6.758;2022-09-14T05:49:09;12.90;99.90
53274;DHT22;39163;52.696;6.758;2022-09-14T05:51:35;13.00;99.90
53274;DHT22;39163;52.696;6.758;2022-09-14T05:54:01;13.00;99.90
53274;DHT22;39163;52.696;6.758;2022-09-14T05:56:33;13.10;99.90
53274;DHT22;39163;52.696;6.758;2022-09-14T05:58:59;13.10;99.90
53274;DHT22;39163;52.696;6.758;2022-09-14T06:01:29;13.20;99.90
53274;DHT22;39163;52.696;6.758;2022-09-14T06:03:57;13.20;99.90
53274;DHT22;39163;52.696;6.758;2022-09-14T06:06:25;13.30;99.90
53274;DHT22;39163;52.696;6.758;2022-09-14T06:08:52;13.30;99.90
53274;DHT22;39163;52.696;6.758;2022-09-14T06:11:27;13.30;99.90
53274;DHT22;39163;52.696;6.758;2022-09-14T06:14:29;13.40;99.90
53274;DHT22;39163;52.696;6.758;2022-09-14T06:16:54;13.50;99.90
53274;DHT22;39163;52.696;6.758;2022-09-14T06:19:20;13.50;99.90
53274;DHT22;39163;52.696;6.758;2022-09-14T06:21:46;13.50;99.90
53274;DHT22;39163;52.696;6.758;2022-09-14T06:24:12;13.50;99.90
53274;DHT22;39163;52.696;6.758;2022-09-14T06:26:39;13.60;99.90
53274;DHT22;39163;52.696;6.758;2022-09-14T06:29:05;13.60;99.90
53274;DHT22;39163;52.696;6.758;2022-09-14T06:31:34;13.60;99.90
53274;DHT22;39163;52.696;6.758;2022-09-14T06:34:00;13.60;99.90
53274;DHT22;39163;52.696;6.758;2022-09-14T06:36:26;13.70;99.90
53274;DHT22;39163;52.696;6.758;2022-09-14T06:38:53;13.70;99.90
53274;DHT22;39163;52.696;6.758;2022-09-14T06:41:21;13.70;99.90
53274;DHT22;39163;52.696;6.758;2022-09-14T06:43:48;13.80;99.90
53274;DHT22;39163;52.696;6.758;2022-09-14T06:46:19;13.90;99.90
53274;DHT22;39163;52.696;6.758;2022-09-14T06:48:55;13.90;99.90
53274;DHT22;39163;52.696;6.758;2022-09-14T06:51:23;13.90;99.90
53274;DHT22;39163;52.696;6.758;2022-09-14T06:53:50;14.00;99.90
53274;DHT22;39163;52.696;6.758;2022-09-14T06:56:17;14.10;99.90
53274;DHT22;39163;52.696;6.758;2022-09-14T06:58:43;14.10;99.90
53274;DHT22;39163;52.696;6.758;2022-09-14T07:01:14;14.20;99.90
53274;DHT22;39163;52.696;6.758;2022-09-14T07:03:40;14.20;99.90
53274;DHT22;39163;52.696;6.758;2022-09-14T07:06:11;14.30;99.90
53274;DHT22;39163;52.696;6.758;2022-09-14T07:08:39;14.40;99.90
53274;DHT22;39163;52.696;6.758;2022-09-14T07:11:06;14.40;99.90
53274;DHT22;39163;52.696;6.758;2022-09-14T07:13:32;14.50;99.90
53274;DHT22;39163;52.696;6.758;2022-09-14T07:15:59;14.60;99.90
53274;DHT22;39163;52.696;6.758;2022-09-14T07:18:25;14.70;99.90
53274;DHT22;39163;52.696;6.758;2022-09-14T07:23:30;14.80;99.90
53274;DHT22;39163;52.696;6.758;2022-09-14T07:26:28;14.90;99.90
53274;DHT22;39163;52.696;6.758;2022-09-14T07:29:00;15.10;99.90
53274;DHT22;39163;52.696;6.758;2022-09-14T07:31:35;15.20;99.90
53274;DHT22;39163;52.696;6.758;2022-09-14T07:34:02;15.30;99.90
53274;DHT22;39163;52.696;6.758;2022-09-14T07:36:38;15.50;99.90
53274;DHT22;39163;52.696;6.758;2022-09-14T07:39:08;15.70;99.90
53274;DHT22;39163;52.696;6.758;2022-09-14T07:41:35;15.90;99.90
53274;DHT22;39163;52.696;6.758;2022-09-14T07:44:03;16.00;99.90
53274;DHT22;39163;52.696;6.758;2022-09-14T07:49:39;16.50;99.90
53274;DHT22;39163;52.696;6.758;2022-09-14T07:52:04;16.70;99.90
53274;DHT22;39163;52.696;6.758;2022-09-14T07:57:12;17.20;99.90
53274;DHT22;39163;52.696;6.758;2022-09-14T07:59:38;17.50;99.90
53274;DHT22;39163;52.696;6.758;2022-09-14T08:02:06;17.60;99.90
53274;DHT22;39163;52.696;6.758;2022-09-14T08:04:33;17.80;99.90
53274;DHT22;39163;52.696;6.758;2022-09-14T08:07:03;17.90;99.90
53274;DHT22;39163;52.696;6.758;2022-09-14T08:09:28;18.20;99.90
53274;DHT22;39163;52.696;6.758;2022-09-14T08:11:54;18.50;99.90
53274;DHT22;39163;52.696;6.758;2022-09-14T08:14:20;18.80;99.90
53274;DHT22;39163;52.696;6.758;2022-09-14T08:17:05;19.10;99.90
53274;DHT22;39163;52.696;6.758;2022-09-14T08:19:33;19.40;99.90
53274;DHT22;39163;52.696;6.758;2022-09-14T08:22:00;19.40;99.90
53274;DHT22;39163;52.696;6.758;2022-09-14T08:24:33;19.50;99.90
53274;DHT22;39163;52.696;6.758;2022-09-14T08:27:08;19.50;99.90
53274;DHT22;39163;52.696;6.758;2022-09-14T08:29:45;19.50;99.90
53274;DHT22;39163;52.696;6.758;2022-09-14T08:32:13;19.50;99.90
53274;DHT22;39163;52.696;6.758;2022-09-14T08:34:54;19.50;99.90
53274;DHT22;39163;52.696;6.758;2022-09-14T11:56:11;22.80;99.20
53274;DHT22;39163;52.696;6.758;2022-09-14T11:58:52;22.60;98.90
53274;DHT22;39163;52.696;6.758;2022-09-14T12:01:34;22.50;99.30
53274;DHT22;39163;52.696;6.758;2022-09-14T12:04:16;22.40;99.60
53274;DHT22;39163;52.696;6.758;2022-09-14T12:06:43;22.10;99.40
53274;DHT22;39163;52.696;6.758;2022-09-14T12:11:57;21.80;99.90
53274;DHT22;39163;52.696;6.758;2022-09-14T12:17:24;21.60;99.90
53274;DHT22;39163;52.696;6.758;2022-09-14T12:19:58;21.50;99.90
53274;DHT22;39163;52.696;6.758;2022-09-14T12:22:50;21.50;99.90
53274;DHT22;39163;52.696;6.758;2022-09-14T12:25:20;21.80;99.90
53274;DHT22;39163;52.696;6.758;2022-09-14T12:27:48;22.10;99.90
53274;DHT22;39163;52.696;6.758;2022-09-14T12:43:55;24.00;96.90
53274;DHT22;39163;52.696;6.758;2022-09-14T12:48:53;24.30;97.20
53274;DHT22;39163;52.696;6.758;2022-09-14T12:59:53;25.50;94.70
53274;DHT22;39163;52.696;6.758;2022-09-14T13:05:19;24.90;94.40
53274;DHT22;39163;52.696;6.758;2022-09-14T13:07:54;24.60;94.90
53274;DHT22;39163;52.696;6.758;2022-09-14T13:10:35;24.50;94.40
53274;DHT22;39163;52.696;6.758;2022-09-14T13:13:29;24.00;93.40
53274;DHT22;39163;52.696;6.758;2022-09-14T13:16:23;23.90;95.10
53274;DHT22;39163;52.696;6.758;2022-09-14T13:19:03;23.70;95.50
53274;DHT22;39163;52.696;6.758;2022-09-14T13:21:35;23.60;96.00
53274;DHT22;39163;52.696;6.758;2022-09-14T13:27:01;23.30;96.80
53274;DHT22;39163;52.696;6.758;2022-09-14T13:32:42;23.00;97.20
53274;DHT22;39163;52.696;6.758;2022-09-14T13:35:30;22.90;97.50
53274;DHT22;39163;52.696;6.758;2022-09-14T13:38:20;22.80;97.80
53274;DHT22;39163;52.696;6.758;2022-09-14T13:40:54;22.80;96.80
53274;DHT22;39163;52.696;6.758;2022-09-14T13:43:46;22.70;96.40
53274;DHT22;39163;52.696;6.758;2022-09-14T13:46:33;22.80;97.10
53274;DHT22;39163;52.696;6.758;2022-09-14T13:49:05;23.00;96.60
53274;DHT22;39163;52.696;6.758;2022-09-14T13:51:45;23.10;96.70
53274;DHT22;39163;52.696;6.758;2022-09-14T13:54:27;23.20;97.50
53274;DHT22;39163;52.696;6.758;2022-09-14T13:57:18;23.30;96.50
53274;DHT22;39163;52.696;6.758;2022-09-14T14:02:49;23.50;95.40
53274;DHT22;39163;52.696;6.758;2022-09-14T14:05:31;23.70;95.90
53274;DHT22;39163;52.696;6.758;2022-09-14T14:10:55;24.40;95.30
53274;DHT22;39163;52.696;6.758;2022-09-14T14:13:26;24.60;94.90
53274;DHT22;39163;52.696;6.758;2022-09-14T14:15:59;24.60;95.00
53274;DHT22;39163;52.696;6.758;2022-09-14T14:19:00;24.60;95.50
53274;DHT22;39163;52.696;6.758;2022-09-14T14:21:29;24.50;94.70
53274;DHT22;39163;52.696;6.758;2022-09-14T14:24:30;24.50;94.50
53274;DHT22;39163;52.696;6.758;2022-09-14T14:27:33;24.60;94.10
53274;DHT22;39163;52.696;6.758;2022-09-14T14:30:19;24.70;94.60
53274;DHT22;39163;52.696;6.758;2022-09-14T14:32:50;24.60;93.70
53274;DHT22;39163;52.696;6.758;2022-09-14T14:35:25;24.20;93.70
53274;DHT22;39163;52.696;6.758;2022-09-14T14:37:54;24.00;94.60
53274;DHT22;39163;52.696;6.758;2022-09-14T14:40:21;23.80;95.00
53274;DHT22;39163;52.696;6.758;2022-09-14T14:42:50;23.70;94.40
53274;DHT22;39163;52.696;6.758;2022-09-14T14:45:21;23.70;95.00
53274;DHT22;39163;52.696;6.758;2022-09-14T14:47:59;23.60;94.70
53274;DHT22;39163;52.696;6.758;2022-09-14T14:50:41;23.50;95.40
53274;DHT22;39163;52.696;6.758;2022-09-14T14:53:12;23.40;95.90
53274;DHT22;39163;52.696;6.758;2022-09-14T14:56:03;23.30;96.00
53274;DHT22;39163;52.696;6.758;2022-09-14T14:58:31;23.30;95.40
53274;DHT22;39163;52.696;6.758;2022-09-14T15:00:57;23.20;95.10
53274;DHT22;39163;52.696;6.758;2022-09-14T15:03:23;23.10;95.10
53274;DHT22;39163;52.696;6.758;2022-09-14T15:05:49;23.00;95.70
53274;DHT22;39163;52.696;6.758;2022-09-14T15:08:17;22.90;96.10
53274;DHT22;39163;52.696;6.758;2022-09-14T15:10:44;22.80;96.60
53274;DHT22;39163;52.696;6.758;2022-09-14T15:13:11;22.70;96.30
53274;DHT22;39163;52.696;6.758;2022-09-14T15:15:41;22.70;96.70
53274;DHT22;39163;52.696;6.758;2022-09-14T15:18:07;22.80;96.60
53274;DHT22;39163;52.696;6.758;2022-09-14T15:20:33;23.10;97.00
53274;DHT22;39163;52.696;6.758;2022-09-14T15:22:59;23.20;96.20
53274;DHT22;39163;52.696;6.758;2022-09-14T15:25:25;23.20;95.90
53274;DHT22;39163;52.696;6.758;2022-09-14T15:27:54;23.30;96.30
53274;DHT22;39163;52.696;6.758;2022-09-14T15:30:20;23.20;96.40
53274;DHT22;39163;52.696;6.758;2022-09-14T15:32:52;23.10;96.20
53274;DHT22;39163;52.696;6.758;2022-09-14T15:35:18;22.90;95.90
53274;DHT22;39163;52.696;6.758;2022-09-14T15:37:45;22.80;96.30
53274;DHT22;39163;52.696;6.758;2022-09-14T15:40:13;22.80;96.90
53274;DHT22;39163;52.696;6.758;2022-09-14T15:42:42;22.70;97.30
53274;DHT22;39163;52.696;6.758;2022-09-14T15:45:08;22.60;96.40
53274;DHT22;39163;52.696;6.758;2022-09-14T15:47:35;22.50;96.70
53274;DHT22;39163;52.696;6.758;2022-09-14T15:50:00;22.40;96.60
53274;DHT22;39163;52.696;6.758;2022-09-14T15:52:26;22.40;97.60
53274;DHT22;39163;52.696;6.758;2022-09-14T15:54:52;22.50;97.70
53274;DHT22;39163;52.696;6.758;2022-09-14T15:57:19;22.50;97.60
53274;DHT22;39163;52.696;6.758;2022-09-14T15:59:44;22.40;97.30
53274;DHT22;39163;52.696;6.758;2022-09-14T16:02:10;22.30;97.20
53274;DHT22;39163;52.696;6.758;2022-09-14T16:04:39;22.20;97.50
53274;DHT22;39163;52.696;6.758;2022-09-14T16:07:08;22.20;98.10
53274;DHT22;39163;52.696;6.758;2022-09-14T16:09:37;22.10;97.90
53274;DHT22;39163;52.696;6.758;2022-09-14T16:12:07;21.90;97.50
53274;DHT22;39163;52.696;6.758;2022-09-14T16:14:33;21.80;98.40
53274;DHT22;39163;52.696;6.758;2022-09-14T16:16:58;21.70;99.00
53274;DHT22;39163;52.696;6.758;2022-09-14T16:19:25;21.60;98.90
53274;DHT22;39163;52.696;6.758;2022-09-14T16:21:51;21.50;98.40
53274;DHT22;39163;52.696;6.758;2022-09-14T16:24:18;21.50;98.60
53274;DHT22;39163;52.696;6.758;2022-09-14T16:26:54;21.40;99.10
53274;DHT22;39163;52.696;6.758;2022-09-14T16:29:20;21.20;98.90
53274;DHT22;39163;52.696;6.758;2022-09-14T16:31:48;21.10;99.20
53274;DHT22;39163;52.696;6.758;2022-09-14T16:34:21;21.00;99.20
53274;DHT22;39163;52.696;6.758;2022-09-14T16:39:31;20.90;99.90
53274;DHT22;39163;52.696;6.758;2022-09-14T16:42:12;20.80;99.90
53274;DHT22;39163;52.696;6.758;2022-09-14T16:44:37;20.70;99.90
53274;DHT22;39163;52.696;6.758;2022-09-14T16:47:03;20.70;99.90
53274;DHT22;39163;52.696;6.758;2022-09-14T16:49:29;20.70;99.90
53274;DHT22;39163;52.696;6.758;2022-09-14T16:51:56;20.70;99.90
53274;DHT22;39163;52.696;6.758;2022-09-14T16:54:23;20.60;99.90
53274;DHT22;39163;52.696;6.758;2022-09-14T16:56:48;20.60;99.90
53274;DHT22;39163;52.696;6.758;2022-09-14T16:59:15;20.50;99.90
53274;DHT22;39163;52.696;6.758;2022-09-14T17:01:45;20.50;99.90
53274;DHT22;39163;52.696;6.758;2022-09-14T17:04:13;20.40;99.90
53274;DHT22;39163;52.696;6.758;2022-09-14T17:06:42;20.40;99.90
53274;DHT22;39163;52.696;6.758;2022-09-14T17:09:13;20.30;99.90
53274;DHT22;39163;52.696;6.758;2022-09-14T17:11:41;20.30;99.90
53274;DHT22;39163;52.696;6.758;2022-09-14T17:14:12;20.20;99.90
53274;DHT22;39163;52.696;6.758;2022-09-14T17:16:38;20.10;99.90
53274;DHT22;39163;52.696;6.758;2022-09-14T17:19:04;20.00;99.90
53274;DHT22;39163;52.696;6.758;2022-09-14T17:21:36;19.90;99.90
53274;DHT22;39163;52.696;6.758;2022-09-14T17:24:02;19.80;99.90
53274;DHT22;39163;52.696;6.758;2022-09-14T17:26:29;19.70;99.90
53274;DHT22;39163;52.696;6.758;2022-09-14T17:28:56;19.70;99.90
53274;DHT22;39163;52.696;6.758;2022-09-14T17:31:24;19.60;99.90
53274;DHT22;39163;52.696;6.758;2022-09-14T17:33:55;19.50;99.90
53274;DHT22;39163;52.696;6.758;2022-09-14T17:36:21;19.40;99.90
53274;DHT22;39163;52.696;6.758;2022-09-14T17:38:47;19.30;99.90
53274;DHT22;39163;52.696;6.758;2022-09-14T17:41:19;19.20;99.90
53274;DHT22;39163;52.696;6.758;2022-09-14T17:43:53;19.10;99.90
53274;DHT22;39163;52.696;6.758;2022-09-14T17:46:20;19.10;99.90
53274;DHT22;39163;52.696;6.758;2022-09-14T17:48:52;18.90;99.90
53274;DHT22;39163;52.696;6.758;2022-09-14T17:51:21;18.80;99.90
53274;DHT22;39163;52.696;6.758;2022-09-14T17:53:49;18.70;99.90
53274;DHT22;39163;52.696;6.758;2022-09-14T17:56:18;18.50;99.90
53274;DHT22;39163;52.696;6.758;2022-09-14T17:58:45;18.40;99.90
53274;DHT22;39163;52.696;6.758;2022-09-14T18:01:19;18.30;99.90
53274;DHT22;39163;52.696;6.758;2022-09-14T18:03:59;18.20;99.90
53274;DHT22;39163;52.696;6.758;2022-09-14T18:06:30;18.20;99.90
53274;DHT22;39163;52.696;6.758;2022-09-14T18:09:00;18.10;99.90
53274;DHT22;39163;52.696;6.758;2022-09-14T18:11:26;18.00;99.90
53274;DHT22;39163;52.696;6.758;2022-09-14T18:13:52;18.00;99.90
53274;DHT22;39163;52.696;6.758;2022-09-14T18:16:20;17.90;99.90
53274;DHT22;39163;52.696;6.758;2022-09-14T18:18:46;17.80;99.90
53274;DHT22;39163;52.696;6.758;2022-09-14T18:21:12;17.80;99.90
53274;DHT22;39163;52.696;6.758;2022-09-14T18:23:40;17.70;99.90
53274;DHT22;39163;52.696;6.758;2022-09-14T18:26:06;17.70;99.90
53274;DHT22;39163;52.696;6.758;2022-09-14T18:28:33;17.60;99.90
53274;DHT22;39163;52.696;6.758;2022-09-14T18:31:07;17.60;99.90
53274;DHT22;39163;52.696;6.758;2022-09-14T18:33:37;17.50;99.90
53274;DHT22;39163;52.696;6.758;2022-09-14T18:36:24;17.50;99.90
53274;DHT22;39163;52.696;6.758;2022-09-14T18:39:08;17.50;99.90
53274;DHT22;39163;52.696;6.758;2022-09-14T18:41:53;17.40;99.90
53274;DHT22;39163;52.696;6.758;2022-09-14T18:44:26;17.40;99.90
53274;DHT22;39163;52.696;6.758;2022-09-14T18:47:20;17.30;99.90
53274;DHT22;39163;52.696;6.758;2022-09-14T18:50:07;17.30;99.90
53274;DHT22;39163;52.696;6.758;2022-09-14T18:52:41;17.20;99.90
53274;DHT22;39163;52.696;6.758;2022-09-14T18:55:15;17.10;99.90
53274;DHT22;39163;52.696;6.758;2022-09-14T18:57:54;17.10;99.90
53274;DHT22;39163;52.696;6.758;2022-09-14T19:00:43;17.00;99.90
53274;DHT22;39163;52.696;6.758;2022-09-14T19:03:34;17.00;99.90
53274;DHT22;39163;52.696;6.758;2022-09-14T19:06:22;16.90;99.90
53274;DHT22;39163;52.696;6.758;2022-09-14T19:09:01;16.80;99.90
53274;DHT22;39163;52.696;6.758;2022-09-14T19:11:54;16.80;99.90
53274;DHT22;39163;52.696;6.758;2022-09-14T19:14:23;16.70;99.90
53274;DHT22;39163;52.696;6.758;2022-09-14T19:16:55;16.70;99.90
53274;DHT22;39163;52.696;6.758;2022-09-14T19:19:26;16.60;99.90
53274;DHT22;39163;52.696;6.758;2022-09-14T19:21:53;16.60;99.90
53274;DHT22;39163;52.696;6.758;2022-09-14T19:24:34;16.60;99.90
53274;DHT22;39163;52.696;6.758;2022-09-14T19:27:05;16.60;99.90
53274;DHT22;39163;52.696;6.758;2022-09-14T19:29:47;16.50;99.90
53274;DHT22;39163;52.696;6.758;2022-09-14T19:46:09;16.00;99.90
53274;DHT22;39163;52.696;6.758;2022-09-14T19:48:48;15.90;99.90
53274;DHT22;39163;52.696;6.758;2022-09-14T19:51:30;15.80;99.90
53274;DHT22;39163;52.696;6.758;2022-09-14T19:54:17;15.80;99.90
53274;DHT22;39163;52.696;6.758;2022-09-14T19:57:01;15.70;99.90
53274;DHT22;39163;52.696;6.758;2022-09-14T19:59:37;15.70;99.90
53274;DHT22;39163;52.696;6.758;2022-09-14T20:02:11;15.60;99.90
53274;DHT22;39163;52.696;6.758;2022-09-14T22:16:15;13.10;99.90
53274;DHT22;39163;52.696;6.758;2022-09-14T22:30:08;13.00;99.90
53274;DHT22;39163;52.696;6.758;2022-09-14T22:32:35;13.00;99.90
53274;DHT22;39163;52.696;6.758;2022-09-14T22:35:01;12.90;99.90
53274;DHT22;39163;52.696;6.758;2022-09-14T22:37:34;12.80;99.90
53274;DHT22;39163;52.696;6.758;2022-09-14T22:40:02;12.80;99.90
53274;DHT22;39163;52.696;6.758;2022-09-14T22:42:28;12.80;99.90
53274;DHT22;39163;52.696;6.758;2022-09-14T22:45:02;12.80;99.90
53274;DHT22;39163;52.696;6.758;2022-09-14T22:47:39;12.80;99.90
53274;DHT22;39163;52.696;6.758;2022-09-14T22:50:28;12.80;99.90
53274;DHT22;39163;52.696;6.758;2022-09-14T22:53:16;12.80;99.90
53274;DHT22;39163;52.696;6.758;2022-09-14T22:56:34;12.80;99.90
53274;DHT22;39163;52.696;6.758;2022-09-14T22:59:56;12.70;99.90
53274;DHT22;39163;52.696;6.758;2022-09-14T23:03:09;12.80;99.90
53274;DHT22;39163;52.696;6.758;2022-09-14T23:09:25;12.80;99.90
53274;DHT22;39163;52.696;6.758;2022-09-14T23:11:53;12.80;99.90
53274;DHT22;39163;52.696;6.758;2022-09-14T23:14:26;12.90;99.90
53274;DHT22;39163;52.696;6.758;2022-09-14T23:17:08;12.90;99.90
53274;DHT22;39163;52.696;6.758;2022-09-14T23:20:08;12.90;99.90
53274;DHT22;39163;52.696;6.758;2022-09-14T23:22:54;13.00;99.90
53274;DHT22;39163;52.696;6.758;2022-09-14T23:25:48;13.00;99.90
53274;DHT22;39163;52.696;6.758;2022-09-14T23:28:53;13.10;99.90
